createdAt,value
2022-09-07T00:02:33.813Z,100773.09
2022-09-07T00:07:36.332Z,100859.75
2022-09-07T00:12:38.849Z,100908.69
2022-09-07T00:17:42.815Z,100746.59
2022-09-07T00:22:46.720Z,100742.81
2022-09-07T00:27:49.148Z,100792.81
2022-09-07T00:32:51.721Z,100887.22
2022-09-07T00:37:54.276Z,100916.91
2022-09-07T00:42:56.781Z,100837.78
2022-09-07T00:48:09.433Z,100897.16
2022-09-07T00:53:35.002Z,100809.13
2022-09-07T00:58:40.314Z,100863.06
2022-09-07T01:03:49.781Z,100699.94
2022-09-07T01:08:52.845Z,100669.44
2022-09-07T01:13:55.984Z,100634.91
2022-09-07T01:19:12.856Z,100674.84
2022-09-07T01:24:41.500Z,100733.13
2022-09-07T01:29:56.374Z,100891.75
2022-09-07T01:35:02.977Z,100858.09
2022-09-07T01:40:25.492Z,100892.91
2022-09-07T01:45:33.761Z,100865.91
2022-09-07T01:50:50.262Z,100878.03
2022-09-07T01:56:09.040Z,100885.84
2022-09-07T02:01:15.837Z,100863.56
2022-09-07T02:06:23.752Z,100917.72
2022-09-07T02:11:36.999Z,100884.31
2022-09-07T02:16:48.893Z,100907.69
2022-09-07T02:22:00.113Z,100836.69
2022-09-07T02:27:08.396Z,100908.75
2022-09-07T02:32:10.873Z,100866.03
2022-09-07T02:37:15.478Z,100874.78
2022-09-07T02:42:17.838Z,100904.25
2022-09-07T02:47:23.080Z,100895.59
2022-09-07T02:52:34.576Z,100838.47
2022-09-07T02:57:48.593Z,100842.63
2022-09-07T03:03:13.533Z,100921.50
2022-09-07T03:08:31.987Z,100915.81
2022-09-07T03:13:34.890Z,100827.50
2022-09-07T03:18:37.226Z,100871.25
2022-09-07T03:23:39.871Z,100907.56
2022-09-07T03:28:42.215Z,100905.72
2022-09-07T03:33:44.562Z,100913.31
2022-09-07T03:38:46.964Z,100821.47
2022-09-07T03:43:49.605Z,100927.03
2022-09-07T03:48:52.110Z,100938.25
2022-09-07T03:53:55.331Z,100801.41
2022-09-07T03:58:58.046Z,100889.84
2022-09-07T04:04:03.036Z,100869.50
2022-09-07T04:09:07.333Z,100903.03
2022-09-07T04:14:11.503Z,100896.13
2022-09-07T04:19:14.175Z,100854.22
2022-09-07T04:24:17.704Z,100878.47
2022-09-07T04:29:20.246Z,100905.81
2022-09-07T04:34:22.668Z,100901.78
2022-09-07T04:39:25.283Z,100914.31
2022-09-07T04:44:27.837Z,100890.53
2022-09-07T04:49:30.193Z,100960.00
2022-09-07T04:54:36.928Z,100923.09
2022-09-07T04:59:42.400Z,100938.69
2022-09-07T05:04:48.226Z,100966.53
2022-09-07T05:09:50.710Z,100865.78
2022-09-07T05:14:53.096Z,100923.44
2022-09-07T05:19:55.731Z,100932.84
2022-09-07T05:24:58.220Z,100884.44
2022-09-07T05:35:23.010Z,100918.34
2022-09-07T05:40:25.699Z,100975.66
2022-09-07T05:45:28.307Z,100991.59
2022-09-07T05:50:30.646Z,100965.91
2022-09-07T05:55:32.996Z,100985.56
2022-09-07T06:00:35.506Z,100968.41
2022-09-07T06:05:39.250Z,100965.66
2022-09-07T06:15:45.017Z,100989.00
2022-09-07T06:20:47.365Z,100966.63
2022-09-07T06:25:50.323Z,100976.31
2022-09-07T06:30:52.660Z,100992.53
2022-09-07T06:35:59.346Z,100992.78
2022-09-07T06:51:49.456Z,101029.13
2022-09-07T06:56:51.944Z,100999.41
2022-09-07T07:01:54.297Z,101036.31
2022-09-07T07:06:56.712Z,101003.22
2022-09-07T07:11:59.154Z,100991.53
2022-09-07T07:17:01.549Z,100987.13
2022-09-07T07:22:29.645Z,101006.53
2022-09-07T07:27:26.631Z,101039.56
2022-09-07T07:32:29.082Z,100968.22
2022-09-07T07:37:32.843Z,100920.00
2022-09-07T07:42:36.323Z,101009.88
2022-09-07T07:47:38.959Z,101058.72
2022-09-07T07:58:03.662Z,101030.59
2022-09-07T08:03:06.077Z,101064.13
2022-09-07T08:08:08.390Z,101025.63
2022-09-07T08:13:10.885Z,101054.47
2022-09-07T08:18:16.162Z,100962.44
2022-09-07T08:23:21.086Z,101057.75
2022-09-07T08:28:24.170Z,101041.78
2022-09-07T08:33:26.707Z,101024.25
2022-09-07T08:38:33.916Z,101007.81
2022-09-07T08:43:49.454Z,101042.03
2022-09-07T08:48:52.452Z,100984.69
2022-09-07T08:53:55.028Z,101021.50
2022-09-07T08:58:57.958Z,101038.63
2022-09-07T09:04:17.883Z,101013.41
2022-09-07T09:09:32.458Z,101014.25
2022-09-07T09:14:47.128Z,101016.78
2022-09-07T09:19:52.189Z,101006.91
2022-09-07T09:25:06.380Z,100987.38
2022-09-07T09:30:34.800Z,101002.50
2022-09-07T09:35:38.066Z,100961.06
2022-09-07T09:40:46.464Z,100935.47
2022-09-07T09:56:44.943Z,100976.34
2022-09-07T10:07:29.164Z,100949.38
2022-09-07T10:12:37.270Z,100964.78
2022-09-07T10:17:43.795Z,100943.31
2022-09-07T10:22:55.031Z,100965.91
2022-09-07T10:28:13.254Z,100956.88
2022-09-07T10:33:41.640Z,100954.75
2022-09-07T10:38:59.938Z,100908.34
2022-09-07T10:44:05.214Z,100928.97
2022-09-07T10:49:30.113Z,100936.09
2022-09-07T10:54:48.387Z,100931.97
2022-09-07T11:00:08.274Z,100929.78
2022-09-07T11:05:44.895Z,100930.28
2022-09-07T11:11:17.578Z,100912.13
2022-09-07T11:22:23.273Z,100911.19
2022-09-07T11:27:46.279Z,100875.75
2022-09-07T11:33:16.800Z,100909.16
2022-09-07T11:38:26.180Z,100909.66
2022-09-07T11:43:42.480Z,100879.19
2022-09-07T11:48:57.373Z,100892.78
2022-09-07T11:54:16.672Z,100874.63
2022-09-07T12:00:01.221Z,100836.53
2022-09-07T12:05:50.678Z,100881.50
2022-09-07T12:11:07.825Z,100881.16
2022-09-07T12:16:37.850Z,100862.66
2022-09-07T12:21:45.397Z,100859.25
2022-09-07T12:26:50.809Z,100837.72
2022-09-07T12:32:00.744Z,100879.66
2022-09-07T12:37:12.530Z,100854.88
2022-09-07T12:42:38.681Z,100857.22
2022-09-07T12:47:41.255Z,100850.94
2022-09-07T12:52:43.663Z,100840.19
2022-09-07T12:58:12.027Z,100841.28
2022-09-07T13:09:21.765Z,100844.84
2022-09-07T13:14:29.322Z,100857.22
2022-09-07T13:19:46.920Z,100846.28
2022-09-07T13:24:56.850Z,100827.50
2022-09-07T13:30:17.473Z,100849.72
2022-09-07T13:35:32.460Z,100848.00
2022-09-07T13:40:39.842Z,100830.50
2022-09-07T13:45:59.495Z,100830.25
2022-09-07T13:51:19.268Z,100846.88
2022-09-07T13:56:27.480Z,100827.53
2022-09-07T14:01:30.191Z,100805.44
2022-09-07T14:06:34.113Z,100809.75
2022-09-07T14:11:54.614Z,100732.28
2022-09-07T14:17:15.015Z,100729.03
2022-09-07T14:22:28.724Z,100697.97
2022-09-07T14:27:38.220Z,100834.22
2022-09-07T14:32:42.096Z,100734.22
2022-09-07T14:37:46.168Z,100794.88
2022-09-07T14:42:50.948Z,100819.00
2022-09-07T14:47:57.127Z,100796.66
2022-09-07T14:58:32.322Z,100831.13
2022-09-07T15:03:55.843Z,100834.34
2022-09-07T15:08:58.576Z,100809.47
2022-09-07T15:14:12.970Z,100797.75
2022-09-07T15:19:19.105Z,100823.66
2022-09-07T15:24:21.546Z,100804.69
2022-09-07T15:29:24.485Z,100835.75
2022-09-07T15:34:27.146Z,100809.09
2022-09-07T15:39:35.711Z,100817.91
2022-09-07T15:44:38.173Z,100822.16
2022-09-07T15:49:47.402Z,100810.53
2022-09-07T15:54:51.916Z,100824.19
2022-09-07T15:59:54.366Z,100684.72
2022-09-07T16:04:56.861Z,100682.94
2022-09-07T16:10:02.394Z,100778.75
2022-09-07T16:15:06.651Z,100719.06
2022-09-07T16:20:10.696Z,100813.47
2022-09-07T16:25:14.683Z,100815.72
2022-09-07T16:30:17.416Z,100738.97
2022-09-07T16:35:19.909Z,100761.50
2022-09-07T16:40:22.323Z,100768.94
2022-09-07T16:51:00.577Z,100805.78
2022-09-07T16:56:09.909Z,100788.06
2022-09-07T17:01:20.412Z,100775.00
2022-09-07T17:06:25.519Z,100796.13
2022-09-07T17:11:31.789Z,100823.03
2022-09-07T17:16:37.650Z,100683.38
2022-09-07T17:21:41.106Z,100757.72
2022-09-07T17:26:43.881Z,100569.75
2022-09-07T17:37:09.255Z,100840.50
2022-09-07T17:42:11.908Z,100800.66
2022-09-07T17:47:14.619Z,100850.09
2022-09-07T17:52:17.097Z,100790.94
2022-09-07T17:57:20.023Z,100731.75
2022-09-07T18:02:22.502Z,100841.91
2022-09-07T18:07:25.020Z,100895.94
2022-09-07T18:12:27.542Z,100910.44
2022-09-07T18:17:30.118Z,100866.72
2022-09-07T18:22:34.769Z,100917.53
2022-09-07T18:27:37.471Z,100899.03
2022-09-07T18:32:39.861Z,100904.47
2022-09-07T18:37:42.441Z,100821.00
2022-09-07T18:42:44.911Z,100852.06
2022-09-07T18:47:47.810Z,100849.47
2022-09-07T18:52:52.068Z,100916.22
2022-09-07T18:57:55.707Z,100876.25
2022-09-07T19:02:58.249Z,100936.44
2022-09-07T19:08:03.766Z,100873.66
2022-09-07T19:13:06.142Z,100927.59
2022-09-07T19:18:08.695Z,100876.84
2022-09-07T19:23:11.206Z,100910.09
2022-09-07T19:28:33.041Z,100894.00
2022-09-07T19:33:38.194Z,100789.16
2022-09-07T19:38:43.043Z,100897.16
2022-09-07T19:43:46.857Z,100870.00
2022-09-07T19:48:49.507Z,100895.22
2022-09-07T19:53:51.928Z,100897.78
2022-09-07T19:58:54.536Z,100896.50
2022-09-07T20:03:59.694Z,100805.53
2022-09-07T20:09:02.585Z,100800.00
2022-09-07T20:14:05.109Z,100775.03
2022-09-07T20:19:08.305Z,100830.00
2022-09-07T20:24:15.120Z,100786.03
2022-09-07T20:29:33.266Z,100929.03
2022-09-07T20:34:35.803Z,100879.28
2022-09-07T20:39:39.553Z,100935.34
2022-09-07T20:44:42.325Z,100926.91
2022-09-07T20:49:44.754Z,100903.47
2022-09-07T20:54:47.213Z,100918.81
2022-09-07T20:59:49.662Z,100952.53
2022-09-07T21:04:51.970Z,100909.75
2022-09-07T21:09:54.256Z,100971.78
2022-09-07T21:14:56.648Z,100898.28
2022-09-07T21:19:59.357Z,100966.75
2022-09-07T21:25:02.824Z,100935.22
2022-09-07T21:30:06.453Z,100991.06
2022-09-07T21:35:10.741Z,100957.25
2022-09-07T21:40:13.471Z,100887.84
2022-09-07T21:45:15.975Z,100938.72
2022-09-07T21:50:18.395Z,100904.41
2022-09-07T21:55:21.059Z,100921.56
2022-09-07T22:00:23.477Z,100910.25
2022-09-07T22:05:26.177Z,100909.75
2022-09-07T22:10:28.647Z,100890.19
2022-09-07T22:15:34.143Z,100905.22
2022-09-07T22:20:36.675Z,100898.28
2022-09-07T22:25:39.001Z,100912.34
2022-09-07T22:30:42.283Z,100915.47
2022-09-07T22:35:44.712Z,100906.13
2022-09-07T22:40:47.084Z,100896.91
2022-09-07T22:45:49.475Z,100901.53
2022-09-07T22:50:56.518Z,100904.00
2022-09-07T22:55:59.775Z,100891.72
2022-09-07T23:01:02.574Z,100898.94
2022-09-07T23:06:05.187Z,100903.19
2022-09-07T23:11:07.512Z,100924.28
2022-09-07T23:16:10.032Z,100853.84
2022-09-07T23:21:12.431Z,100868.91
2022-09-07T23:26:14.747Z,100893.97
2022-09-07T23:31:17.125Z,100828.06
2022-09-07T23:36:20.528Z,100884.03
2022-09-07T23:41:23.888Z,100711.69
2022-09-07T23:46:26.516Z,100820.47
2022-09-07T23:51:29.137Z,100821.19
2022-09-07T23:56:33.135Z,100863.56
